createdAt,value
2022-11-08T00:00:04.490Z,13.30
2022-11-08T00:04:18.647Z,13.26
2022-11-08T00:08:48.822Z,13.22
2022-11-08T00:13:19.024Z,13.18
2022-11-08T00:17:31.348Z,13.19
2022-11-08T00:21:49.583Z,13.21
2022-11-08T00:26:01.180Z,13.22
2022-11-08T00:30:12.953Z,13.21
2022-11-08T00:34:24.552Z,13.16
2022-11-08T00:38:36.174Z,13.12
2022-11-08T00:42:47.772Z,13.00
2022-11-08T00:46:59.633Z,12.88
2022-11-08T00:51:12.403Z,12.87
2022-11-08T00:55:24.083Z,12.81
2022-11-08T00:59:35.884Z,12.74
2022-11-08T01:03:48.903Z,12.68
2022-11-08T01:08:00.614Z,12.62
2022-11-08T01:12:12.230Z,12.55
2022-11-08T01:16:26.141Z,12.53
2022-11-08T01:20:39.461Z,12.48
2022-11-08T01:24:51.101Z,12.43
2022-11-08T01:29:02.681Z,12.39
2022-11-08T01:33:15.697Z,12.34
2022-11-08T01:37:27.278Z,12.28
2022-11-08T01:41:39.248Z,12.27
2022-11-08T01:46:09.431Z,12.30
2022-11-08T01:50:21.014Z,12.26
2022-11-08T01:54:52.747Z,12.25
2022-11-08T01:59:07.893Z,12.21
2022-11-08T02:03:20.671Z,12.17
2022-11-08T02:07:34.100Z,12.19
2022-11-08T02:11:47.554Z,12.19
2022-11-08T02:15:59.247Z,12.15
2022-11-08T02:20:11.085Z,12.18
2022-11-08T02:24:22.776Z,12.19
2022-11-08T02:28:42.132Z,12.20
2022-11-08T02:32:53.651Z,12.22
2022-11-08T02:37:06.582Z,12.22
2022-11-08T02:41:18.237Z,12.25
2022-11-08T02:45:29.681Z,12.23
2022-11-08T02:49:41.128Z,12.20
2022-11-08T02:53:52.632Z,12.21
2022-11-08T02:58:04.320Z,12.26
2022-11-08T03:02:15.910Z,12.27
2022-11-08T03:06:27.515Z,12.24
2022-11-08T03:10:39.006Z,12.27
2022-11-08T03:14:50.504Z,12.25
2022-11-08T03:19:01.894Z,12.28
2022-11-08T03:23:13.807Z,12.25
2022-11-08T03:27:25.380Z,12.26
2022-11-08T03:31:36.863Z,12.25
2022-11-08T03:35:49.429Z,12.24
2022-11-08T03:40:00.890Z,12.25
2022-11-08T03:44:12.312Z,12.20
2022-11-08T03:48:23.817Z,12.15
2022-11-08T03:52:42.191Z,12.12
2022-11-08T03:56:54.117Z,12.03
2022-11-08T04:01:06.768Z,11.97
2022-11-08T04:05:18.528Z,11.92
2022-11-08T04:09:29.948Z,11.83
2022-11-08T04:14:00.000Z,11.78
2022-11-08T04:18:30.060Z,11.73
2022-11-08T04:22:41.523Z,11.68
2022-11-08T04:26:52.953Z,11.63
2022-11-08T04:31:13.101Z,11.62
2022-11-08T04:35:24.516Z,11.57
2022-11-08T04:39:35.941Z,11.56
2022-11-08T04:43:48.535Z,11.55
2022-11-08T04:47:59.967Z,11.54
2022-11-08T04:52:11.406Z,11.54
2022-11-08T04:56:23.591Z,11.56
2022-11-08T05:00:35.051Z,11.58
2022-11-08T05:04:46.555Z,11.60
2022-11-08T05:08:59.430Z,11.59
2022-11-08T05:13:11.307Z,11.57
2022-11-08T05:17:22.800Z,11.54
2022-11-08T05:21:53.003Z,11.56
2022-11-08T05:26:04.653Z,11.52
2022-11-08T05:30:16.154Z,11.52
2022-11-08T05:34:27.631Z,11.49
2022-11-08T05:38:39.948Z,11.45
2022-11-08T05:42:54.240Z,11.44
2022-11-08T05:47:05.675Z,11.46
2022-11-08T05:51:18.628Z,11.45
2022-11-08T05:55:31.560Z,11.42
2022-11-08T05:59:43.013Z,11.40
2022-11-08T06:03:54.500Z,11.38
2022-11-08T06:08:05.991Z,11.36
2022-11-08T06:12:17.455Z,11.31
2022-11-08T06:16:28.912Z,11.32
2022-11-08T06:20:40.410Z,11.24
2022-11-08T06:24:51.854Z,11.25
2022-11-08T06:29:03.353Z,11.25
2022-11-08T06:33:15.746Z,11.21
2022-11-08T06:37:27.958Z,11.25
2022-11-08T06:41:39.359Z,11.28
2022-11-08T06:45:50.858Z,11.30
2022-11-08T06:50:02.367Z,11.34
2022-11-08T06:54:17.693Z,11.39
2022-11-08T06:58:30.327Z,11.41
2022-11-08T07:02:44.201Z,11.49
2022-11-08T07:06:55.780Z,11.52
2022-11-08T07:11:07.731Z,11.52
2022-11-08T07:15:20.057Z,11.54
2022-11-08T07:19:32.016Z,11.54
2022-11-08T07:23:43.636Z,11.61
2022-11-08T07:27:59.957Z,11.70
2022-11-08T07:32:11.635Z,11.75
2022-11-08T07:36:23.158Z,11.76
2022-11-08T07:40:35.274Z,11.89
2022-11-08T07:44:46.837Z,11.99
2022-11-08T07:48:58.307Z,12.08
2022-11-08T07:53:10.672Z,12.22
2022-11-08T07:57:22.298Z,12.37
2022-11-08T08:01:33.915Z,12.57
2022-11-08T08:05:50.515Z,12.76
2022-11-08T08:10:02.102Z,12.90
2022-11-08T08:14:13.693Z,13.09
2022-11-08T08:18:25.234Z,13.18
2022-11-08T08:22:37.073Z,13.36
2022-11-08T08:26:48.619Z,13.60
2022-11-08T08:31:00.324Z,13.87
2022-11-08T08:35:12.589Z,14.28
2022-11-08T08:39:24.148Z,14.56
2022-11-08T08:43:35.682Z,14.93
2022-11-08T08:47:52.837Z,14.98
2022-11-08T08:52:04.545Z,14.93
2022-11-08T08:56:16.139Z,14.90
2022-11-08T09:04:59.265Z,15.07
2022-11-08T09:09:10.815Z,14.98
2022-11-08T09:13:23.157Z,14.92
2022-11-08T09:17:34.728Z,14.85
2022-11-08T09:21:46.304Z,14.70
2022-11-08T09:26:03.967Z,14.66
2022-11-08T09:30:15.605Z,14.55
2022-11-08T09:34:27.592Z,14.58
2022-11-08T09:38:39.400Z,14.58
2022-11-08T09:43:17.474Z,14.75
2022-11-08T09:47:39.876Z,14.95
2022-11-08T09:51:51.616Z,15.08
2022-11-08T09:56:13.312Z,15.04
2022-11-08T10:00:25.400Z,14.98
2022-11-08T10:04:37.551Z,14.96
2022-11-08T10:09:29.198Z,14.97
2022-11-08T10:14:02.150Z,15.08
2022-11-08T10:18:32.483Z,15.20
2022-11-08T10:23:03.192Z,15.23
2022-11-08T10:27:18.713Z,15.38
2022-11-08T10:31:33.882Z,15.48
2022-11-08T10:36:01.581Z,15.49
2022-11-08T10:40:16.790Z,15.54
2022-11-08T10:44:28.879Z,15.59
2022-11-08T10:48:40.481Z,15.73
2022-11-08T10:53:00.874Z,15.73
2022-11-08T10:57:15.822Z,15.63
2022-11-08T11:01:27.441Z,15.49
2022-11-08T11:05:54.932Z,15.33
2022-11-08T11:10:25.873Z,15.33
2022-11-08T11:14:37.668Z,15.32
2022-11-08T11:18:50.881Z,15.35
2022-11-08T11:23:02.513Z,15.32
2022-11-08T11:27:41.415Z,15.40
2022-11-08T11:31:54.129Z,15.39
2022-11-08T11:36:15.500Z,15.47
2022-11-08T11:40:49.552Z,15.56
2022-11-08T11:45:36.447Z,15.61
2022-11-08T11:49:50.532Z,15.65
2022-11-08T11:54:05.026Z,15.73
2022-11-08T11:58:34.656Z,15.74
2022-11-08T12:03:05.065Z,15.86
2022-11-08T12:07:26.274Z,16.11
2022-11-08T12:12:03.754Z,16.19
2022-11-08T12:16:42.041Z,16.40
2022-11-08T12:21:20.718Z,16.51
2022-11-08T12:25:34.649Z,16.67
2022-11-08T12:29:56.518Z,16.76
2022-11-08T12:34:35.483Z,16.87
2022-11-08T12:39:08.208Z,16.83
2022-11-08T12:43:26.910Z,16.74
2022-11-08T12:47:56.122Z,16.67
2022-11-08T12:52:26.288Z,16.49
2022-11-08T12:56:44.922Z,16.23
2022-11-08T13:01:02.087Z,16.10
2022-11-08T13:05:22.800Z,16.12
2022-11-08T13:09:48.781Z,16.07
2022-11-08T13:14:00.605Z,16.06
2022-11-08T13:18:12.008Z,16.11
2022-11-08T13:22:29.436Z,16.14
2022-11-08T13:26:43.055Z,16.12
2022-11-08T13:31:02.047Z,16.21
2022-11-08T13:35:45.783Z,16.29
2022-11-08T13:40:21.814Z,16.32
2022-11-08T13:44:55.137Z,16.30
2022-11-08T13:49:24.825Z,16.27
2022-11-08T13:53:49.826Z,16.20
2022-11-08T13:58:02.039Z,16.25
2022-11-08T14:02:25.639Z,16.29
2022-11-08T14:07:00.319Z,16.32
2022-11-08T14:11:24.313Z,16.38
2022-11-08T14:15:56.899Z,16.29
2022-11-08T14:20:32.582Z,16.25
2022-11-08T14:24:44.379Z,16.26
2022-11-08T14:29:00.071Z,16.14
2022-11-08T14:33:18.751Z,16.10
2022-11-08T14:37:30.616Z,16.01
2022-11-08T14:41:47.833Z,15.99
2022-11-08T14:46:09.786Z,15.97
2022-11-08T14:50:23.311Z,15.95
2022-11-08T14:54:40.548Z,15.96
2022-11-08T14:58:53.766Z,15.90
2022-11-08T15:03:06.154Z,15.84
2022-11-08T15:07:22.434Z,15.79
2022-11-08T15:11:40.382Z,15.68
2022-11-08T15:15:57.312Z,15.65
2022-11-08T15:20:12.980Z,15.60
2022-11-08T15:24:35.573Z,15.56
2022-11-08T15:29:06.875Z,15.49
2022-11-08T15:33:44.757Z,15.49
2022-11-08T15:38:23.570Z,15.46
2022-11-08T15:42:36.200Z,15.46
2022-11-08T15:46:50.685Z,15.46
2022-11-08T15:51:04.658Z,15.46
2022-11-08T15:55:20.528Z,15.57
2022-11-08T15:59:35.775Z,15.62
2022-11-08T16:03:48.333Z,15.56
2022-11-08T16:07:59.927Z,15.55
2022-11-08T16:12:15.359Z,15.48
2022-11-08T16:16:30.050Z,15.47
2022-11-08T16:20:45.877Z,15.44
2022-11-08T16:24:57.390Z,15.38
2022-11-08T16:29:21.598Z,15.28
2022-11-08T16:33:35.182Z,15.17
2022-11-08T16:37:47.313Z,15.10
2022-11-08T16:41:59.094Z,14.94
2022-11-08T16:46:11.011Z,15.00
2022-11-08T16:50:26.512Z,14.92
2022-11-08T16:54:38.044Z,14.89
2022-11-08T16:58:49.979Z,14.85
2022-11-08T17:03:01.883Z,14.85
2022-11-08T17:07:14.462Z,14.80
2022-11-08T17:11:26.044Z,14.74
2022-11-08T17:15:37.570Z,14.72
2022-11-08T17:19:49.129Z,14.72
2022-11-08T17:24:00.665Z,14.80
2022-11-08T17:28:12.826Z,14.85
2022-11-08T17:32:24.470Z,14.90
2022-11-08T17:36:36.023Z,14.94
2022-11-08T17:40:47.538Z,15.03
2022-11-08T17:44:59.338Z,15.05
2022-11-08T17:49:10.876Z,15.06
2022-11-08T17:53:22.546Z,15.05
2022-11-08T17:57:34.088Z,15.05
2022-11-08T18:01:45.659Z,14.98
2022-11-08T18:06:02.416Z,14.90
2022-11-08T18:10:13.953Z,14.80
2022-11-08T18:14:29.135Z,14.74
2022-11-08T18:18:42.017Z,14.72
2022-11-08T18:22:54.209Z,14.67
2022-11-08T18:27:05.759Z,14.58
2022-11-08T18:31:20.225Z,14.59
2022-11-08T18:35:31.735Z,14.58
2022-11-08T18:39:43.222Z,14.52
2022-11-08T18:43:55.750Z,14.50
2022-11-08T18:48:07.216Z,14.47
2022-11-08T18:52:20.745Z,14.48
2022-11-08T18:56:32.391Z,14.52
2022-11-08T19:00:43.884Z,14.54
2022-11-08T19:04:56.209Z,14.54
2022-11-08T19:09:07.708Z,14.46
2022-11-08T19:13:21.602Z,14.44
2022-11-08T19:17:35.169Z,14.41
2022-11-08T19:21:46.652Z,14.37
2022-11-08T19:26:00.943Z,14.32
2022-11-08T19:30:12.786Z,14.38
2022-11-08T19:34:24.288Z,14.39
2022-11-08T19:38:37.175Z,14.42
2022-11-08T19:42:48.664Z,14.40
2022-11-08T19:47:00.204Z,14.35
2022-11-08T19:51:13.848Z,14.36
2022-11-08T19:55:25.362Z,14.34
2022-11-08T19:59:36.854Z,14.42
2022-11-08T20:03:49.668Z,14.47
2022-11-08T20:08:04.702Z,14.47
2022-11-08T20:12:16.182Z,14.50
2022-11-08T20:16:30.456Z,14.56
2022-11-08T20:20:43.416Z,14.60
2022-11-08T20:24:55.092Z,14.58
2022-11-08T20:29:07.208Z,14.61
2022-11-08T20:33:18.786Z,14.66
2022-11-08T20:37:30.247Z,14.69
2022-11-08T20:41:42.221Z,14.76
2022-11-08T20:45:54.306Z,14.79
2022-11-08T20:50:06.246Z,14.83
2022-11-08T20:54:17.840Z,14.85
2022-11-08T20:58:30.986Z,14.89
2022-11-08T21:02:42.461Z,14.89
2022-11-08T21:07:45.209Z,14.95
2022-11-08T21:11:27.479Z,14.96
2022-11-08T21:15:39.042Z,14.99
2022-11-08T21:19:51.728Z,15.00
2022-11-08T21:24:03.524Z,15.04
2022-11-08T21:28:15.226Z,14.98
2022-11-08T21:32:26.894Z,15.00
2022-11-08T21:36:38.382Z,14.93
2022-11-08T21:40:51.715Z,14.82
2022-11-08T21:45:03.993Z,14.73
2022-11-08T21:49:15.500Z,14.65
2022-11-08T21:53:26.970Z,14.58
2022-11-08T21:57:39.209Z,14.55
2022-11-08T22:01:50.751Z,14.62
2022-11-08T22:06:02.525Z,14.63
2022-11-08T22:10:14.141Z,14.56
2022-11-08T22:14:25.645Z,14.49
2022-11-08T22:23:09.157Z,14.40
2022-11-08T22:27:20.733Z,14.31
2022-11-08T22:31:32.876Z,14.28
2022-11-08T22:35:45.718Z,14.17
2022-11-08T22:39:57.198Z,14.10
2022-11-08T22:44:11.647Z,14.10
2022-11-08T22:48:24.020Z,14.00
2022-11-08T22:52:35.582Z,14.03
2022-11-08T22:56:48.214Z,13.94
2022-11-08T23:00:59.867Z,13.89
2022-11-08T23:05:11.458Z,13.86
2022-11-08T23:09:23.056Z,13.87
2022-11-08T23:13:55.087Z,13.86
2022-11-08T23:18:06.684Z,13.76
2022-11-08T23:22:37.304Z,13.72
2022-11-08T23:27:07.527Z,13.72
2022-11-08T23:31:51.416Z,13.70
2022-11-08T23:36:12.039Z,13.77
2022-11-08T23:40:42.043Z,13.75
2022-11-08T23:44:53.624Z,13.80
2022-11-08T23:49:05.392Z,13.87
2022-11-08T23:53:17.910Z,13.86
2022-11-08T23:57:30.655Z,13.82
